sensor_id;sensor_type;location;lat;lon;timestamp;pressure;altitude;pressure_sealevel;temperature
27826;BMP280;15077;49.704;9.908;2023-03-01T00:00:16;99141.50;;;4.64
27826;BMP280;15077;49.704;9.908;2023-03-01T00:02:42;99153.22;;;4.62
27826;BMP280;15077;49.704;9.908;2023-03-01T00:05:08;99150.72;;;4.59
27826;BMP280;15077;49.704;9.908;2023-03-01T00:07:33;99148.22;;;4.54
27826;BMP280;15077;49.704;9.908;2023-03-01T00:09:59;99149.03;;;4.52
27826;BMP280;15077;49.704;9.908;2023-03-01T00:12:25;99144.84;;;4.48
27826;BMP280;15077;49.704;9.908;2023-03-01T00:14:50;99149.06;;;4.46
27826;BMP280;15077;49.704;9.908;2023-03-01T00:17:16;99144.84;;;4.43
27826;BMP280;15077;49.704;9.908;2023-03-01T00:19:42;99150.75;;;4.41
27826;BMP280;15077;49.704;9.908;2023-03-01T00:22:08;99154.91;;;4.40
27826;BMP280;15077;49.704;9.908;2023-03-01T00:24:34;99148.22;;;4.39
27826;BMP280;15077;49.704;9.908;2023-03-01T00:26:59;99148.22;;;4.39
27826;BMP280;15077;49.704;9.908;2023-03-01T00:29:26;99152.38;;;4.39
27826;BMP280;15077;49.704;9.908;2023-03-01T00:31:51;99147.38;;;4.39
27826;BMP280;15077;49.704;9.908;2023-03-01T00:34:17;99145.72;;;4.39
27826;BMP280;15077;49.704;9.908;2023-03-01T00:36:43;99139.00;;;4.40
27826;BMP280;15077;49.704;9.908;2023-03-01T00:39:14;99134.81;;;4.39
27826;BMP280;15077;49.704;9.908;2023-03-01T00:41:41;99129.78;;;4.39
27826;BMP280;15077;49.704;9.908;2023-03-01T00:44:07;99127.28;;;4.39
27826;BMP280;15077;49.704;9.908;2023-03-01T00:46:32;99122.25;;;4.37
27826;BMP280;15077;49.704;9.908;2023-03-01T00:48:59;99123.13;;;4.38
27826;BMP280;15077;49.704;9.908;2023-03-01T00:51:28;99119.75;;;4.37
27826;BMP280;15077;49.704;9.908;2023-03-01T00:53:57;99118.94;;;4.37
27826;BMP280;15077;49.704;9.908;2023-03-01T00:56:30;99119.75;;;4.37
27826;BMP280;15077;49.704;9.908;2023-03-01T00:59:01;99116.44;;;4.35
27826;BMP280;15077;49.704;9.908;2023-03-01T01:01:30;99111.41;;;4.35
27826;BMP280;15077;49.704;9.908;2023-03-01T01:04:04;99114.75;;;4.34
27826;BMP280;15077;49.704;9.908;2023-03-01T01:06:44;99103.88;;;4.31
27826;BMP280;15077;49.704;9.908;2023-03-01T01:09:15;99108.91;;;4.28
27826;BMP280;15077;49.704;9.908;2023-03-01T01:11:52;99103.88;;;4.27
27826;BMP280;15077;49.704;9.908;2023-03-01T01:14:19;99097.19;;;4.27
27826;BMP280;15077;49.704;9.908;2023-03-01T01:16:46;99093.84;;;4.27
27826;BMP280;15077;49.704;9.908;2023-03-01T01:19:12;99084.63;;;4.24
27826;BMP280;15077;49.704;9.908;2023-03-01T01:21:39;99091.31;;;4.25
27826;BMP280;15077;49.704;9.908;2023-03-01T01:24:06;99088.00;;;4.22
27826;BMP280;15077;49.704;9.908;2023-03-01T01:26:33;99077.09;;;4.20
27826;BMP280;15077;49.704;9.908;2023-03-01T01:29:02;99080.47;;;4.20
27826;BMP280;15077;49.704;9.908;2023-03-01T01:31:29;99080.47;;;4.17
27826;BMP280;15077;49.704;9.908;2023-03-01T01:33:59;99077.09;;;4.15
27826;BMP280;15077;49.704;9.908;2023-03-01T01:36:28;99074.59;;;4.14
27826;BMP280;15077;49.704;9.908;2023-03-01T01:38:56;99071.25;;;4.12
27826;BMP280;15077;49.704;9.908;2023-03-01T01:41:27;99076.28;;;4.10
27826;BMP280;15077;49.704;9.908;2023-03-01T01:44:23;99070.41;;;4.05
27826;BMP280;15077;49.704;9.908;2023-03-01T01:47:11;99072.09;;;4.03
27826;BMP280;15077;49.704;9.908;2023-03-01T01:49:51;99067.06;;;4.00
27826;BMP280;15077;49.704;9.908;2023-03-01T01:52:33;99066.25;;;3.98
27826;BMP280;15077;49.704;9.908;2023-03-01T01:55:08;99071.25;;;3.98
27826;BMP280;15077;49.704;9.908;2023-03-01T01:57:48;99055.34;;;3.96
27826;BMP280;15077;49.704;9.908;2023-03-01T02:00:21;99052.03;;;3.94
27826;BMP280;15077;49.704;9.908;2023-03-01T02:02:55;99052.84;;;3.95
27826;BMP280;15077;49.704;9.908;2023-03-01T02:07:58;99046.19;;;3.92
27826;BMP280;15077;49.704;9.908;2023-03-01T02:10:28;99037.78;;;3.92
27826;BMP280;15077;49.704;9.908;2023-03-01T02:12:56;99037.78;;;3.92
27826;BMP280;15077;49.704;9.908;2023-03-01T02:15:25;99040.31;;;3.90
27826;BMP280;15077;49.704;9.908;2023-03-01T02:17:54;99034.47;;;3.90
27826;BMP280;15077;49.704;9.908;2023-03-01T02:20:27;99032.78;;;3.87
27826;BMP280;15077;49.704;9.908;2023-03-01T02:22:55;99027.75;;;3.84
27826;BMP280;15077;49.704;9.908;2023-03-01T02:28:47;99032.78;;;3.77
27826;BMP280;15077;49.704;9.908;2023-03-01T02:31:20;99033.63;;;3.78
27826;BMP280;15077;49.704;9.908;2023-03-01T02:34:08;99018.59;;;3.75
27826;BMP280;15077;49.704;9.908;2023-03-01T02:36:48;99030.25;;;3.76
27826;BMP280;15077;49.704;9.908;2023-03-01T02:39:20;99019.41;;;3.75
27826;BMP280;15077;49.704;9.908;2023-03-01T02:41:52;99016.91;;;3.74
27826;BMP280;15077;49.704;9.908;2023-03-01T02:44:22;99016.91;;;3.74
27826;BMP280;15077;49.704;9.908;2023-03-01T02:46:55;99019.41;;;3.74
27826;BMP280;15077;49.704;9.908;2023-03-01T02:49:27;99015.22;;;3.73
27826;BMP280;15077;49.704;9.908;2023-03-01T02:55:05;99014.41;;;3.69
27826;BMP280;15077;49.704;9.908;2023-03-01T02:57:37;99005.19;;;3.70
27826;BMP280;15077;49.704;9.908;2023-03-01T03:00:12;98996.03;;;3.69
27826;BMP280;15077;49.704;9.908;2023-03-01T03:02:52;99002.69;;;3.68
27826;BMP280;15077;49.704;9.908;2023-03-01T03:05:30;98987.66;;;3.68
27826;BMP280;15077;49.704;9.908;2023-03-01T03:07:59;98988.47;;;3.67
27826;BMP280;15077;49.704;9.908;2023-03-01T03:10:35;98984.31;;;3.68
27826;BMP280;15077;49.704;9.908;2023-03-01T03:13:13;98985.97;;;3.66
27826;BMP280;15077;49.704;9.908;2023-03-01T03:15:44;98983.44;;;3.66
27826;BMP280;15077;49.704;9.908;2023-03-01T03:18:16;98976.78;;;3.65
27826;BMP280;15077;49.704;9.908;2023-03-01T03:20:45;98980.13;;;3.64
27826;BMP280;15077;49.704;9.908;2023-03-01T03:23:13;98985.13;;;3.64
27826;BMP280;15077;49.704;9.908;2023-03-01T03:25:41;98985.97;;;3.63
27826;BMP280;15077;49.704;9.908;2023-03-01T03:28:08;98979.28;;;3.62
27826;BMP280;15077;49.704;9.908;2023-03-01T03:30:40;98983.44;;;3.60
27826;BMP280;15077;49.704;9.908;2023-03-01T03:33:09;98978.44;;;3.60
27826;BMP280;15077;49.704;9.908;2023-03-01T03:35:45;98977.63;;;3.58
27826;BMP280;15077;49.704;9.908;2023-03-01T03:38:13;98979.28;;;3.56
27826;BMP280;15077;49.704;9.908;2023-03-01T03:41:05;98970.09;;;3.52
27826;BMP280;15077;49.704;9.908;2023-03-01T03:43:37;98975.09;;;3.52
27826;BMP280;15077;49.704;9.908;2023-03-01T03:46:06;98971.78;;;3.50
27826;BMP280;15077;49.704;9.908;2023-03-01T03:48:40;98971.75;;;3.47
27826;BMP280;15077;49.704;9.908;2023-03-01T03:51:12;98979.28;;;3.44
27826;BMP280;15077;49.704;9.908;2023-03-01T03:53:40;98970.09;;;3.41
27826;BMP280;15077;49.704;9.908;2023-03-01T03:56:06;98962.56;;;3.40
27826;BMP280;15077;49.704;9.908;2023-03-01T03:58:33;98960.88;;;3.37
27826;BMP280;15077;49.704;9.908;2023-03-01T04:00:59;98958.38;;;3.36
27826;BMP280;15077;49.704;9.908;2023-03-01T04:03:28;98955.88;;;3.36
27826;BMP280;15077;49.704;9.908;2023-03-01T04:05:54;98961.72;;;3.35
27826;BMP280;15077;49.704;9.908;2023-03-01T04:08:23;98960.06;;;3.34
27826;BMP280;15077;49.704;9.908;2023-03-01T04:10:56;98963.38;;;3.33
27826;BMP280;15077;49.704;9.908;2023-03-01T04:13:24;98965.06;;;3.31
27826;BMP280;15077;49.704;9.908;2023-03-01T04:15:52;98962.53;;;3.28
27826;BMP280;15077;49.704;9.908;2023-03-01T04:18:21;98965.88;;;3.27
27826;BMP280;15077;49.704;9.908;2023-03-01T04:20:47;98969.22;;;3.26
27826;BMP280;15077;49.704;9.908;2023-03-01T04:23:19;98965.88;;;3.26
27826;BMP280;15077;49.704;9.908;2023-03-01T04:25:58;98962.53;;;3.24
27826;BMP280;15077;49.704;9.908;2023-03-01T04:28:36;98960.03;;;3.22
27826;BMP280;15077;49.704;9.908;2023-03-01T04:31:10;98966.69;;;3.20
27826;BMP280;15077;49.704;9.908;2023-03-01T04:33:41;98965.03;;;3.19
27826;BMP280;15077;49.704;9.908;2023-03-01T04:36:09;98968.38;;;3.18
27826;BMP280;15077;49.704;9.908;2023-03-01T04:38:39;98963.34;;;3.18
27826;BMP280;15077;49.704;9.908;2023-03-01T04:41:08;98968.38;;;3.17
27826;BMP280;15077;49.704;9.908;2023-03-01T04:43:35;98967.53;;;3.15
27826;BMP280;15077;49.704;9.908;2023-03-01T04:46:06;98973.38;;;3.15
27826;BMP280;15077;49.704;9.908;2023-03-01T04:48:33;98971.66;;;3.05
27826;BMP280;15077;49.704;9.908;2023-03-01T04:51:00;98968.34;;;3.06
27826;BMP280;15077;49.704;9.908;2023-03-01T04:53:29;98975.03;;;3.07
27826;BMP280;15077;49.704;9.908;2023-03-01T04:55:56;98973.34;;;3.06
27826;BMP280;15077;49.704;9.908;2023-03-01T04:58:24;98980.88;;;3.08
27826;BMP280;15077;49.704;9.908;2023-03-01T05:00:50;98978.34;;;3.06
27826;BMP280;15077;49.704;9.908;2023-03-01T05:03:17;98979.19;;;3.05
27826;BMP280;15077;49.704;9.908;2023-03-01T05:05:45;98971.66;;;3.05
27826;BMP280;15077;49.704;9.908;2023-03-01T05:08:13;98973.34;;;3.03
27826;BMP280;15077;49.704;9.908;2023-03-01T05:11:01;98975.03;;;3.01
27826;BMP280;15077;49.704;9.908;2023-03-01T05:13:26;98973.34;;;3.00
27826;BMP280;15077;49.704;9.908;2023-03-01T05:15:57;98976.66;;;2.99
27826;BMP280;15077;49.704;9.908;2023-03-01T05:18:24;98969.13;;;2.95
27826;BMP280;15077;49.704;9.908;2023-03-01T05:20:53;98972.50;;;2.94
27826;BMP280;15077;49.704;9.908;2023-03-01T05:23:22;98974.13;;;2.92
27826;BMP280;15077;49.704;9.908;2023-03-01T05:25:48;98971.63;;;2.92
27826;BMP280;15077;49.704;9.908;2023-03-01T05:28:15;98969.97;;;2.89
27826;BMP280;15077;49.704;9.908;2023-03-01T05:30:41;98968.28;;;2.88
27826;BMP280;15077;49.704;9.908;2023-03-01T05:33:08;98962.47;;;2.87
27826;BMP280;15077;49.704;9.908;2023-03-01T05:35:44;98959.09;;;2.86
27826;BMP280;15077;49.704;9.908;2023-03-01T05:38:12;98957.44;;;2.85
27826;BMP280;15077;49.704;9.908;2023-03-01T05:40:47;98965.78;;;2.84
27826;BMP280;15077;49.704;9.908;2023-03-01T05:43:15;98957.44;;;2.82
27826;BMP280;15077;49.704;9.908;2023-03-01T05:45:42;98953.25;;;2.83
27826;BMP280;15077;49.704;9.908;2023-03-01T05:48:10;98960.75;;;2.83
27826;BMP280;15077;49.704;9.908;2023-03-01T05:50:40;98950.75;;;2.81
27826;BMP280;15077;49.704;9.908;2023-03-01T05:53:13;98949.06;;;2.80
27826;BMP280;15077;49.704;9.908;2023-03-01T05:55:39;98957.41;;;2.78
27826;BMP280;15077;49.704;9.908;2023-03-01T05:58:10;98948.22;;;2.78
27826;BMP280;15077;49.704;9.908;2023-03-01T06:00:36;98951.56;;;2.76
27826;BMP280;15077;49.704;9.908;2023-03-01T06:03:02;98943.22;;;2.77
27826;BMP280;15077;49.704;9.908;2023-03-01T06:05:28;98943.22;;;2.77
27826;BMP280;15077;49.704;9.908;2023-03-01T06:07:54;98947.38;;;2.75
27826;BMP280;15077;49.704;9.908;2023-03-01T06:10:22;98953.22;;;2.75
27826;BMP280;15077;49.704;9.908;2023-03-01T06:12:48;98954.88;;;2.75
27826;BMP280;15077;49.704;9.908;2023-03-01T06:15:16;98957.38;;;2.75
27826;BMP280;15077;49.704;9.908;2023-03-01T06:17:44;98954.94;;;2.81
27826;BMP280;15077;49.704;9.908;2023-03-01T06:20:20;98956.56;;;2.82
27826;BMP280;15077;49.704;9.908;2023-03-01T06:22:47;98948.25;;;2.80
27826;BMP280;15077;49.704;9.908;2023-03-01T06:25:18;98951.56;;;2.79
27826;BMP280;15077;49.704;9.908;2023-03-01T06:27:46;98946.56;;;2.77
27826;BMP280;15077;49.704;9.908;2023-03-01T06:30:15;98950.72;;;2.77
27826;BMP280;15077;49.704;9.908;2023-03-01T06:32:41;98954.06;;;2.76
27826;BMP280;15077;49.704;9.908;2023-03-01T06:35:14;98949.03;;;2.74
27826;BMP280;15077;49.704;9.908;2023-03-01T06:37:43;98947.34;;;2.73
27826;BMP280;15077;49.704;9.908;2023-03-01T06:40:10;98946.53;;;2.74
27826;BMP280;15077;49.704;9.908;2023-03-01T06:42:39;98943.22;;;2.74
27826;BMP280;15077;49.704;9.908;2023-03-01T06:45:06;98953.22;;;2.74
27826;BMP280;15077;49.704;9.908;2023-03-01T06:47:33;98950.72;;;2.72
27826;BMP280;15077;49.704;9.908;2023-03-01T06:50:03;98940.72;;;2.72
27826;BMP280;15077;49.704;9.908;2023-03-01T06:52:29;98941.53;;;2.70
27826;BMP280;15077;49.704;9.908;2023-03-01T06:54:55;98941.53;;;2.70
27826;BMP280;15077;49.704;9.908;2023-03-01T06:57:21;98940.69;;;2.69
27826;BMP280;15077;49.704;9.908;2023-03-01T06:59:47;98941.50;;;2.68
27826;BMP280;15077;49.704;9.908;2023-03-01T07:02:14;98934.81;;;2.67
27826;BMP280;15077;49.704;9.908;2023-03-01T07:04:41;98929.00;;;2.67
27826;BMP280;15077;49.704;9.908;2023-03-01T07:07:07;98939.81;;;2.66
27826;BMP280;15077;49.704;9.908;2023-03-01T07:09:33;98936.50;;;2.67
27826;BMP280;15077;49.704;9.908;2023-03-01T07:11:59;98932.31;;;2.67
27826;BMP280;15077;49.704;9.908;2023-03-01T07:14:25;98943.19;;;2.68
27826;BMP280;15077;49.704;9.908;2023-03-01T07:16:55;98923.19;;;2.71
27826;BMP280;15077;49.704;9.908;2023-03-01T07:19:21;98923.19;;;2.74
27826;BMP280;15077;49.704;9.908;2023-03-01T07:21:48;98919.00;;;2.79
27826;BMP280;15077;49.704;9.908;2023-03-01T07:24:13;98919.88;;;2.81
27826;BMP280;15077;49.704;9.908;2023-03-01T07:26:39;98919.03;;;2.85
27826;BMP280;15077;49.704;9.908;2023-03-01T07:29:07;98916.53;;;2.88
27826;BMP280;15077;49.704;9.908;2023-03-01T07:31:35;98919.03;;;2.92
27826;BMP280;15077;49.704;9.908;2023-03-01T07:34:01;98909.03;;;2.95
27826;BMP280;15077;49.704;9.908;2023-03-01T07:36:26;98909.91;;;3.01
27826;BMP280;15077;49.704;9.908;2023-03-01T07:38:52;98909.06;;;3.07
27826;BMP280;15077;49.704;9.908;2023-03-01T07:41:18;98914.06;;;3.13
27826;BMP280;15077;49.704;9.908;2023-03-01T07:43:44;98921.59;;;3.17
27826;BMP280;15077;49.704;9.908;2023-03-01T07:46:10;98920.78;;;3.21
27826;BMP280;15077;49.704;9.908;2023-03-01T07:48:35;98916.63;;;3.29
27826;BMP280;15077;49.704;9.908;2023-03-01T07:51:03;98920.78;;;3.35
27826;BMP280;15077;49.704;9.908;2023-03-01T07:53:30;98917.47;;;3.38
27826;BMP280;15077;49.704;9.908;2023-03-01T07:56:10;98918.28;;;3.42
27826;BMP280;15077;49.704;9.908;2023-03-01T07:58:39;98910.75;;;3.45
27826;BMP280;15077;49.704;9.908;2023-03-01T08:01:08;98915.78;;;3.49
27826;BMP280;15077;49.704;9.908;2023-03-01T08:03:35;98910.75;;;3.54
27826;BMP280;15077;49.704;9.908;2023-03-01T08:06:08;98914.13;;;3.60
27826;BMP280;15077;49.704;9.908;2023-03-01T08:08:35;98911.59;;;3.65
27826;BMP280;15077;49.704;9.908;2023-03-01T08:11:04;98909.91;;;3.70
27826;BMP280;15077;49.704;9.908;2023-03-01T08:13:30;98919.94;;;3.76
27826;BMP280;15077;49.704;9.908;2023-03-01T08:16:05;98906.56;;;3.83
27826;BMP280;15077;49.704;9.908;2023-03-01T08:18:32;98914.91;;;3.87
27826;BMP280;15077;49.704;9.908;2023-03-01T08:21:06;98900.72;;;3.92
27826;BMP280;15077;49.704;9.908;2023-03-01T08:23:32;98911.56;;;3.97
27826;BMP280;15077;49.704;9.908;2023-03-01T08:28:32;98907.34;;;4.11
27826;BMP280;15077;49.704;9.908;2023-03-01T08:30:57;98900.66;;;4.16
27826;BMP280;15077;49.704;9.908;2023-03-01T08:33:24;98900.63;;;4.24
27826;BMP280;15077;49.704;9.908;2023-03-01T08:35:49;98904.78;;;4.29
27826;BMP280;15077;49.704;9.908;2023-03-01T08:38:15;98894.75;;;4.35
27826;BMP280;15077;49.704;9.908;2023-03-01T08:40:41;98888.81;;;4.42
27826;BMP280;15077;49.704;9.908;2023-03-01T08:43:06;98885.47;;;4.46
27826;BMP280;15077;49.704;9.908;2023-03-01T08:45:32;98884.63;;;4.53
27826;BMP280;15077;49.704;9.908;2023-03-01T08:47:58;98874.56;;;4.57
27826;BMP280;15077;49.704;9.908;2023-03-01T08:50:24;98876.22;;;4.63
27826;BMP280;15077;49.704;9.908;2023-03-01T08:52:50;98866.13;;;4.69
27826;BMP280;15077;49.704;9.908;2023-03-01T08:55:16;98867.75;;;4.74
27826;BMP280;15077;49.704;9.908;2023-03-01T08:57:43;98861.06;;;4.78
27826;BMP280;15077;49.704;9.908;2023-03-01T09:00:10;98855.16;;;4.83
27826;BMP280;15077;49.704;9.908;2023-03-01T09:02:40;98858.47;;;4.91
27826;BMP280;15077;49.704;9.908;2023-03-01T09:05:06;98855.91;;;4.95
27826;BMP280;15077;49.704;9.908;2023-03-01T09:07:32;98859.19;;;5.03
27826;BMP280;15077;49.704;9.908;2023-03-01T09:09:57;98863.38;;;5.06
27826;BMP280;15077;49.704;9.908;2023-03-01T09:12:23;98856.63;;;5.12
27826;BMP280;15077;49.704;9.908;2023-03-01T09:14:50;98851.53;;;5.21
27826;BMP280;15077;49.704;9.908;2023-03-01T09:17:16;98851.44;;;5.31
27826;BMP280;15077;49.704;9.908;2023-03-01T09:19:42;98844.69;;;5.38
27826;BMP280;15077;49.704;9.908;2023-03-01T09:22:07;98845.47;;;5.44
27826;BMP280;15077;49.704;9.908;2023-03-01T09:24:33;98842.06;;;5.50
27826;BMP280;15077;49.704;9.908;2023-03-01T09:26:59;98844.53;;;5.57
27826;BMP280;15077;49.704;9.908;2023-03-01T09:29:25;98841.94;;;5.63
27826;BMP280;15077;49.704;9.908;2023-03-01T09:31:51;98839.34;;;5.72
27826;BMP280;15077;49.704;9.908;2023-03-01T09:34:25;98841.78;;;5.82
27826;BMP280;15077;49.704;9.908;2023-03-01T09:36:52;98835.84;;;5.89
27826;BMP280;15077;49.704;9.908;2023-03-01T09:39:18;98834.91;;;5.96
27826;BMP280;15077;49.704;9.908;2023-03-01T09:41:59;98828.94;;;6.06
27826;BMP280;15077;49.704;9.908;2023-03-01T09:44:51;98834.72;;;6.16
27826;BMP280;15077;49.704;9.908;2023-03-01T09:47:26;98833.72;;;6.26
27826;BMP280;15077;49.704;9.908;2023-03-01T09:50:13;98826.03;;;6.36
27826;BMP280;15077;49.704;9.908;2023-03-01T09:55:45;98820.66;;;6.64
27826;BMP280;15077;49.704;9.908;2023-03-01T09:58:53;98822.09;;;6.78
27826;BMP280;15077;49.704;9.908;2023-03-01T10:04:47;98823.22;;;7.15
27826;BMP280;15077;49.704;9.908;2023-03-01T10:07:45;98815.38;;;7.31
27826;BMP280;15077;49.704;9.908;2023-03-01T10:10:35;98820.91;;;7.53
27826;BMP280;15077;49.704;9.908;2023-03-01T10:15:51;98805.28;;;7.79
27826;BMP280;15077;49.704;9.908;2023-03-01T10:18:26;98798.31;;;7.93
27826;BMP280;15077;49.704;9.908;2023-03-01T10:23:18;98798.75;;;8.15
27826;BMP280;15077;49.704;9.908;2023-03-01T10:31:38;98798.69;;;8.57
27826;BMP280;15077;49.704;9.908;2023-03-01T10:34:19;98800.88;;;8.71
27826;BMP280;15077;49.704;9.908;2023-03-01T10:36:53;98790.44;;;8.86
27826;BMP280;15077;49.704;9.908;2023-03-01T10:39:24;98783.31;;;9.02
27826;BMP280;15077;49.704;9.908;2023-03-01T10:44:48;98773.38;;;9.29
27826;BMP280;15077;49.704;9.908;2023-03-01T10:47:23;98763.75;;;9.41
27826;BMP280;15077;49.704;9.908;2023-03-01T10:50:03;98760.91;;;9.53
27826;BMP280;15077;49.704;9.908;2023-03-01T10:52:36;98771.72;;;9.60
27826;BMP280;15077;49.704;9.908;2023-03-01T10:55:43;98763.16;;;9.64
27826;BMP280;15077;49.704;9.908;2023-03-01T10:58:21;98756.22;;;9.71
27826;BMP280;15077;49.704;9.908;2023-03-01T11:03:27;98744.00;;;9.85
27826;BMP280;15077;49.704;9.908;2023-03-01T11:08:45;98731.03;;;9.97
27826;BMP280;15077;49.704;9.908;2023-03-01T11:11:29;98728.19;;;10.08
27826;BMP280;15077;49.704;9.908;2023-03-01T11:14:12;98732.09;;;10.19
27826;BMP280;15077;49.704;9.908;2023-03-01T11:16:42;98723.34;;;10.29
27826;BMP280;15077;49.704;9.908;2023-03-01T11:24:13;98715.06;;;10.51
27826;BMP280;15077;49.704;9.908;2023-03-01T11:26:45;98722.31;;;10.62
27826;BMP280;15077;49.704;9.908;2023-03-01T11:29:29;98721.94;;;10.73
27826;BMP280;15077;49.704;9.908;2023-03-01T11:32:01;98720.78;;;10.83
27826;BMP280;15077;49.704;9.908;2023-03-01T11:34:57;98723.13;;;10.89
27826;BMP280;15077;49.704;9.908;2023-03-01T11:37:44;98700.00;;;10.98
27826;BMP280;15077;49.704;9.908;2023-03-01T11:40:29;98693.91;;;11.04
27826;BMP280;15077;49.704;9.908;2023-03-01T11:43:32;98687.13;;;11.04
27826;BMP280;15077;49.704;9.908;2023-03-01T11:50:07;98681.03;;;11.10
27826;BMP280;15077;49.704;9.908;2023-03-01T11:52:52;98679.78;;;11.21
27826;BMP280;15077;49.704;9.908;2023-03-01T11:58:59;98676.84;;;11.33
27826;BMP280;15077;49.704;9.908;2023-03-01T12:01:34;98661.41;;;11.39
27826;BMP280;15077;49.704;9.908;2023-03-01T12:06:52;98657.09;;;11.41
27826;BMP280;15077;49.704;9.908;2023-03-01T12:18:22;98639.50;;;11.61
27826;BMP280;15077;49.704;9.908;2023-03-01T12:24:24;98633.06;;;11.73
27826;BMP280;15077;49.704;9.908;2023-03-01T12:38:50;98603.16;;;11.81
27826;BMP280;15077;49.704;9.908;2023-03-01T12:50:51;98593.41;;;11.92
27826;BMP280;15077;49.704;9.908;2023-03-01T12:53:34;98580.00;;;11.89
27826;BMP280;15077;49.704;9.908;2023-03-01T12:56:15;98584.91;;;11.93
27826;BMP280;15077;49.704;9.908;2023-03-01T13:02:07;98556.84;;;11.96
27826;BMP280;15077;49.704;9.908;2023-03-01T13:07:55;98552.63;;;11.95
27826;BMP280;15077;49.704;9.908;2023-03-01T13:10:40;98549.97;;;11.98
27826;BMP280;15077;49.704;9.908;2023-03-01T13:13:12;98542.25;;;12.01
27826;BMP280;15077;49.704;9.908;2023-03-01T13:15:38;98533.69;;;12.04
27826;BMP280;15077;49.704;9.908;2023-03-01T13:20:50;98527.25;;;11.95
27826;BMP280;15077;49.704;9.908;2023-03-01T13:26:16;98531.78;;;11.87
27826;BMP280;15077;49.704;9.908;2023-03-01T13:28:49;98529.06;;;11.92
27826;BMP280;15077;49.704;9.908;2023-03-01T13:33:55;98536.75;;;11.90
27826;BMP280;15077;49.704;9.908;2023-03-01T13:49:59;98542.44;;;11.75
27826;BMP280;15077;49.704;9.908;2023-03-01T13:52:52;98535.81;;;11.71
27826;BMP280;15077;49.704;9.908;2023-03-01T13:55:26;98535.16;;;11.66
27826;BMP280;15077;49.704;9.908;2023-03-01T13:58:02;98523.56;;;11.60
27826;BMP280;15077;49.704;9.908;2023-03-01T14:00:38;98518.66;;;11.55
27826;BMP280;15077;49.704;9.908;2023-03-01T14:03:19;98516.41;;;11.48
27826;BMP280;15077;49.704;9.908;2023-03-01T14:06:17;98508.31;;;11.37
27826;BMP280;15077;49.704;9.908;2023-03-01T14:08:46;98504.91;;;11.38
27826;BMP280;15077;49.704;9.908;2023-03-01T14:17:34;98497.22;;;11.18
27826;BMP280;15077;49.704;9.908;2023-03-01T14:20:09;98518.03;;;11.03
27826;BMP280;15077;49.704;9.908;2023-03-01T14:22:40;98499.31;;;11.07
27826;BMP280;15077;49.704;9.908;2023-03-01T14:25:24;98501.06;;;11.05
27826;BMP280;15077;49.704;9.908;2023-03-01T14:28:23;98506.16;;;11.05
27826;BMP280;15077;49.704;9.908;2023-03-01T14:30:52;98495.03;;;11.09
27826;BMP280;15077;49.704;9.908;2023-03-01T14:36:07;98499.94;;;11.13
27826;BMP280;15077;49.704;9.908;2023-03-01T14:41:09;98503.81;;;11.22
27826;BMP280;15077;49.704;9.908;2023-03-01T14:43:39;98496.09;;;11.25
27826;BMP280;15077;49.704;9.908;2023-03-01T14:46:18;98495.34;;;11.23
27826;BMP280;15077;49.704;9.908;2023-03-01T14:48:44;98497.06;;;11.22
27826;BMP280;15077;49.704;9.908;2023-03-01T14:51:12;98486.78;;;11.25
27826;BMP280;15077;49.704;9.908;2023-03-01T14:53:37;98486.72;;;11.27
27826;BMP280;15077;49.704;9.908;2023-03-01T14:56:03;98495.16;;;11.27
27826;BMP280;15077;49.704;9.908;2023-03-01T14:58:33;98490.19;;;11.24
27826;BMP280;15077;49.704;9.908;2023-03-01T15:01:03;98489.28;;;11.27
27826;BMP280;15077;49.704;9.908;2023-03-01T15:03:41;98501.97;;;11.27
27826;BMP280;15077;49.704;9.908;2023-03-01T15:06:09;98498.41;;;11.31
27826;BMP280;15077;49.704;9.908;2023-03-01T15:08:41;98500.78;;;11.35
27826;BMP280;15077;49.704;9.908;2023-03-01T15:13:40;98500.59;;;11.40
27826;BMP280;15077;49.704;9.908;2023-03-01T15:16:21;98492.28;;;11.36
27826;BMP280;15077;49.704;9.908;2023-03-01T15:19:04;98493.22;;;11.34
27826;BMP280;15077;49.704;9.908;2023-03-01T15:21:38;98502.66;;;11.30
27826;BMP280;15077;49.704;9.908;2023-03-01T15:24:20;98500.41;;;11.23
27826;BMP280;15077;49.704;9.908;2023-03-01T15:27:00;98492.75;;;11.24
27826;BMP280;15077;49.704;9.908;2023-03-01T15:29:33;98490.16;;;11.26
27826;BMP280;15077;49.704;9.908;2023-03-01T15:34:59;98486.97;;;11.21
27826;BMP280;15077;49.704;9.908;2023-03-01T15:37:49;98489.63;;;11.18
27826;BMP280;15077;49.704;9.908;2023-03-01T15:40:25;98496.25;;;11.20
27826;BMP280;15077;49.704;9.908;2023-03-01T15:43:04;98495.34;;;11.23
27826;BMP280;15077;49.704;9.908;2023-03-01T15:45:32;98497.06;;;11.22
27826;BMP280;15077;49.704;9.908;2023-03-01T15:48:13;98496.03;;;11.26
27826;BMP280;15077;49.704;9.908;2023-03-01T15:50:41;98492.50;;;11.30
27826;BMP280;15077;49.704;9.908;2023-03-01T15:53:13;98493.22;;;11.34
27826;BMP280;15077;49.704;9.908;2023-03-01T15:55:41;98497.47;;;11.33
27826;BMP280;15077;49.704;9.908;2023-03-01T15:58:20;98498.28;;;11.34
27826;BMP280;15077;49.704;9.908;2023-03-01T16:00:49;98496.66;;;11.33
27826;BMP280;15077;49.704;9.908;2023-03-01T16:03:17;98491.81;;;11.27
27826;BMP280;15077;49.704;9.908;2023-03-01T16:05:48;98493.56;;;11.25
27826;BMP280;15077;49.704;9.908;2023-03-01T16:08:16;98498.97;;;11.16
27826;BMP280;15077;49.704;9.908;2023-03-01T16:10:42;98490.72;;;11.11
27826;BMP280;15077;49.704;9.908;2023-03-01T16:13:12;98489.16;;;11.07
27826;BMP280;15077;49.704;9.908;2023-03-01T16:15:39;98487.66;;;11.02
27826;BMP280;15077;49.704;9.908;2023-03-01T16:18:06;98492.84;;;10.99
27826;BMP280;15077;49.704;9.908;2023-03-01T16:20:34;98507.47;;;10.92
27826;BMP280;15077;49.704;9.908;2023-03-01T16:23:03;98500.94;;;10.85
27826;BMP280;15077;49.704;9.908;2023-03-01T16:25:31;98505.47;;;10.77
27826;BMP280;15077;49.704;9.908;2023-03-01T16:27:58;98503.03;;;10.74
27826;BMP280;15077;49.704;9.908;2023-03-01T16:30:27;98503.34;;;10.65
27826;BMP280;15077;49.704;9.908;2023-03-01T16:32:52;98514.53;;;10.60
27826;BMP280;15077;49.704;9.908;2023-03-01T16:35:21;98507.94;;;10.55
27826;BMP280;15077;49.704;9.908;2023-03-01T16:37:48;98503.94;;;10.49
27826;BMP280;15077;49.704;9.908;2023-03-01T16:42:51;98506.72;;;10.42
27826;BMP280;15077;49.704;9.908;2023-03-01T16:45:18;98503.50;;;10.37
27826;BMP280;15077;49.704;9.908;2023-03-01T16:47:44;98503.59;;;10.34
27826;BMP280;15077;49.704;9.908;2023-03-01T16:50:10;98501.97;;;10.33
27826;BMP280;15077;49.704;9.908;2023-03-01T16:52:37;98506.97;;;10.34
27826;BMP280;15077;49.704;9.908;2023-03-01T16:55:06;98508.63;;;10.35